Time;durP1;ratioP1;P1;durP2;ratioP2;P2;SDS_P1;SDS_P2;PMS_P1;PMS_P2;Temp;Humidity;BMP_temperature;BMP_pressure;BME280_temperature;BME280_humidity;BME280_pressure;Samples;Min_cycle;Max_cycle;Signal;HPM_P1;HPM_P2
2022/10/19 00:01:36;;;;;;;7.53;6.13;;;;;;;13.64;73.37;99291.56;5060436;28;20579;-70
2022/10/19 00:04:03;;;;;;;9.95;6.85;;;;;;;13.64;73.42;99289.63;5043881;28;20493;-69
2022/10/19 00:06:34;;;;;;;14.70;9.13;;;;;;;13.63;73.19;99273.38;5061252;28;20036;-70
2022/10/19 00:09:07;;;;;;;17.35;10.95;;;;;;;13.61;73.31;99276.44;5070427;28;21311;-70
2022/10/19 00:11:34;;;;;;;18.75;11.73;;;;;;;13.63;73.70;99273.38;5069933;28;20042;-69
2022/10/19 00:14:00;;;;;;;22.73;13.25;;;;;;;13.62;73.26;99277.25;5069630;28;20036;-74
2022/10/19 00:16:28;;;;;;;21.52;12.98;;;;;;;13.61;73.29;99276.44;5069575;28;20044;-72
2022/10/19 00:19:00;;;;;;;20.00;12.48;;;;;;;13.62;73.22;99274.50;5069855;28;20158;-72
2022/10/19 00:21:25;;;;;;;19.17;12.50;;;;;;;13.63;73.45;99271.47;5070666;28;20032;-72
2022/10/19 00:23:50;;;;;;;21.17;12.70;;;;;;;13.63;73.21;99276.13;5073845;28;20028;-72
2022/10/19 00:26:16;;;;;;;20.38;12.45;;;;;;;13.63;73.41;99273.38;5072166;28;20024;-73
2022/10/19 00:28:43;;;;;;;19.48;12.18;;;;;;;13.61;73.11;99268.19;5073490;28;20415;-72
2022/10/19 00:31:11;;;;;;;18.40;12.05;;;;;;;13.61;73.22;99262.66;5066836;28;20094;-72
2022/10/19 00:33:37;;;;;;;16.73;10.80;;;;;;;13.61;73.25;99270.09;5073482;28;20024;-73
2022/10/19 00:36:03;;;;;;;17.92;11.48;;;;;;;13.64;73.32;99266.75;5073683;28;20043;-73
2022/10/19 00:38:29;;;;;;;15.35;10.30;;;;;;;13.65;73.10;99269.19;5074821;28;20486;-74
2022/10/19 00:40:55;;;;;;;15.02;9.98;;;;;;;13.67;73.56;99266.97;5072679;28;20039;-73
2022/10/19 00:43:29;;;;;;;14.30;9.15;;;;;;;13.67;73.34;99258.69;5072334;28;20025;-73
2022/10/19 00:45:55;;;;;;;14.18;8.68;;;;;;;13.67;73.43;99263.41;5071589;28;20083;-73
2022/10/19 00:48:31;;;;;;;13.05;8.48;;;;;;;13.68;73.30;99251.25;5073131;28;20080;-73
2022/10/19 00:50:59;;;;;;;13.02;8.07;;;;;;;13.68;73.33;99248.50;5073142;28;20494;-73
2022/10/19 00:53:27;;;;;;;13.32;8.18;;;;;;;13.68;73.60;99245.75;5072360;28;20113;-73
2022/10/19 00:55:53;;;;;;;11.73;7.55;;;;;;;13.66;73.38;99242.47;5072911;28;20482;-74
2022/10/19 00:58:19;;;;;;;11.40;7.57;;;;;;;13.66;73.10;99243.28;5072628;28;20020;-73
2022/10/19 01:00:44;;;;;;;10.85;6.88;;;;;;;13.66;73.30;99235.00;5092088;28;20032;-73
2022/10/19 01:03:11;;;;;;;13.73;7.65;;;;;;;13.65;73.55;99241.63;5092536;28;20103;-73
2022/10/19 01:05:37;;;;;;;11.35;7.53;;;;;;;13.64;73.45;99239.19;5092577;28;20028;-74
2022/10/19 01:08:04;;;;;;;10.35;7.30;;;;;;;13.64;73.43;99233.69;5092773;28;20103;-74
2022/10/19 01:10:42;;;;;;;11.35;7.35;;;;;;;13.63;73.69;99235.63;5092510;28;20316;-73
2022/10/19 01:13:52;;;;;;;9.63;7.18;;;;;;;13.62;73.61;99231.25;5092074;28;20035;-73
2022/10/19 01:16:29;;;;;;;11.13;7.38;;;;;;;13.63;73.44;99232.03;5043499;28;20693;-73
2022/10/19 01:19:06;;;;;;;8.95;7.03;;;;;;;13.61;73.54;99235.09;5092536;28;20036;-74
2022/10/19 01:21:41;;;;;;;11.80;7.20;;;;;;;13.59;73.45;99228.25;5085206;28;20028;-74
2022/10/19 01:24:57;;;;;;;10.75;8.15;;;;;;;13.55;73.63;99226.06;5080104;28;20304;-74
2022/10/19 01:27:52;;;;;;;12.25;7.97;;;;;;;13.57;73.88;99230.47;5007747;28;20085;-74
2022/10/19 01:30:36;;;;;;;11.70;8.18;;;;;;;13.57;74.34;99235.97;5069761;28;20078;-74
2022/10/19 01:33:09;;;;;;;12.57;8.38;;;;;;;13.53;73.78;99233.81;5070331;28;20478;-75
2022/10/19 01:35:43;;;;;;;11.90;9.18;;;;;;;13.52;74.04;99229.41;5052306;28;20456;-74
2022/10/19 01:38:32;;;;;;;11.52;8.93;;;;;;;13.49;74.66;99227.25;5090804;28;20035;-74
2022/10/19 01:41:16;;;;;;;13.40;9.35;;;;;;;13.45;74.08;99223.44;5090924;28;20043;-74
2022/10/19 01:43:59;;;;;;;13.55;9.80;;;;;;;13.50;74.81;99231.66;5090558;28;20036;-76
2022/10/19 01:46:35;;;;;;;15.48;9.85;;;;;;;13.46;74.41;99227.03;5090895;28;20032;-74
2022/10/19 01:49:21;;;;;;;13.85;10.65;;;;;;;13.43;74.70;99239.50;5077470;28;20029;-74
2022/10/19 01:51:52;;;;;;;16.73;11.07;;;;;;;13.44;74.64;99229.28;5052423;28;20082;-74
2022/10/19 01:54:20;;;;;;;14.07;10.40;;;;;;;13.42;74.59;99234.25;5070444;28;20128;-74
2022/10/19 01:56:48;;;;;;;14.45;9.43;;;;;;;13.44;74.77;99232.03;5070748;28;20032;-74
2022/10/19 01:59:17;;;;;;;13.57;10.52;;;;;;;13.42;74.59;99237.00;5070573;28;20060;-74
2022/10/19 02:01:45;;;;;;;13.53;10.20;;;;;;;13.44;74.56;99237.53;5070408;28;20086;-74
2022/10/19 02:04:14;;;;;;;14.27;9.57;;;;;;;13.46;74.92;99235.31;5068088;28;20016;-74
2022/10/19 02:06:40;;;;;;;11.15;8.90;;;;;;;13.47;75.10;99217.66;5075215;28;20039;-73
2022/10/19 02:09:05;;;;;;;11.85;9.20;;;;;;;13.45;75.07;99222.66;5090951;28;20020;-74
2022/10/19 02:11:32;;;;;;;11.18;8.95;;;;;;;13.42;74.83;99215.81;5079551;28;20017;-74
2022/10/19 02:14:06;;;;;;;13.38;9.35;;;;;;;13.40;74.80;99218.81;5083909;28;20107;-74
2022/10/19 02:16:35;;;;;;;11.70;9.07;;;;;;;13.43;74.97;99213.84;5090272;28;20024;-74
2022/10/19 02:19:04;;;;;;;11.07;8.10;;;;;;;13.40;75.25;99220.75;5090567;28;20035;-74
2022/10/19 02:21:30;;;;;;;13.45;8.88;;;;;;;13.35;74.86;99221.63;5090251;28;20031;-74
2022/10/19 02:23:55;;;;;;;10.57;8.60;;;;;;;13.34;75.18;99220.00;5090294;28;20023;-74
2022/10/19 02:26:21;;;;;;;11.15;8.38;;;;;;;13.34;75.11;99220.00;5090391;28;20382;-74
2022/10/19 02:28:47;;;;;;;11.15;8.75;;;;;;;13.30;75.47;99215.38;5079283;28;20024;-74
2022/10/19 02:31:13;;;;;;;10.45;7.93;;;;;;;13.29;75.30;99217.31;5049380;28;123948;-74
2022/10/19 02:33:38;;;;;;;11.60;8.52;;;;;;;13.27;75.58;99214.03;5052033;28;20098;-74
2022/10/19 02:36:04;;;;;;;9.88;7.95;;;;;;;13.27;75.77;99222.28;5070485;28;20048;-74
2022/10/19 02:38:29;;;;;;;9.50;7.95;;;;;;;13.23;75.63;99210.25;5053001;28;20064;-74
2022/10/19 02:40:58;;;;;;;10.13;7.32;;;;;;;13.21;75.47;99216.03;5052897;28;20012;-74
2022/10/19 02:43:26;;;;;;;8.50;7.60;;;;;;;13.18;75.44;99219.38;5070166;28;20094;-74
2022/10/19 02:46:07;;;;;;;9.43;7.40;;;;;;;13.16;75.29;99209.78;5069871;28;20024;-74
2022/10/19 02:48:35;;;;;;;9.48;7.20;;;;;;;13.14;75.46;99212.81;5070245;28;20029;-74
2022/10/19 02:51:00;;;;;;;13.57;8.18;;;;;;;13.12;75.63;99215.03;5070711;28;20017;-74
2022/10/19 02:53:26;;;;;;;11.75;7.97;;;;;;;13.07;75.93;99226.94;5052075;28;20467;-74
2022/10/19 02:55:51;;;;;;;9.95;7.90;;;;;;;13.03;75.90;99217.63;5070248;28;20432;-74
2022/10/19 02:58:16;;;;;;;10.38;8.10;;;;;;;13.02;75.78;99217.94;5090712;28;20103;-74
2022/10/19 03:00:42;;;;;;;10.05;8.15;;;;;;;13.01;75.70;99230.06;5090333;28;20012;-74
2022/10/19 03:03:08;;;;;;;10.27;8.05;;;;;;;13.00;76.18;99222.91;5090295;28;20024;-74
2022/10/19 03:05:33;;;;;;;9.13;7.70;;;;;;;12.98;75.77;99217.69;5079549;28;20017;-74
2022/10/19 03:07:59;;;;;;;12.75;9.52;;;;;;;12.97;76.09;99215.25;5074650;28;20489;-74
2022/10/19 03:10:24;;;;;;;12.80;9.40;;;;;;;12.91;77.00;99207.03;5070690;28;20062;-74
2022/10/19 03:12:50;;;;;;;12.45;9.32;;;;;;;12.85;76.16;99208.22;5082182;28;20742;-74
2022/10/19 03:15:17;;;;;;;11.05;9.65;;;;;;;12.84;76.15;99209.31;5090212;28;20505;-74
2022/10/19 03:17:42;;;;;;;11.60;8.70;;;;;;;12.83;76.20;99215.94;5090587;28;20053;-74
2022/10/19 03:20:08;;;;;;;12.60;8.90;;;;;;;12.80;76.07;99211.84;5088271;28;20028;-74
2022/10/19 03:22:34;;;;;;;12.48;9.05;;;;;;;12.77;76.68;99212.44;5069849;28;20442;-74
2022/10/19 03:24:59;;;;;;;12.52;9.23;;;;;;;12.74;75.96;99207.50;5070076;28;20044;-74
2022/10/19 03:27:25;;;;;;;12.57;8.82;;;;;;;12.71;76.40;99212.75;5051714;28;20092;-74
2022/10/19 03:29:50;;;;;;;13.27;9.02;;;;;;;12.67;76.20;99204.28;5068904;28;20064;-73
2022/10/19 03:32:15;;;;;;;13.50;9.30;;;;;;;12.63;76.84;99203.22;5089268;28;20107;-74
2022/10/19 03:34:41;;;;;;;12.95;9.10;;;;;;;12.56;76.40;99206.31;5068595;28;20029;-74
2022/10/19 03:37:07;;;;;;;10.60;8.15;;;;;;;12.49;76.50;99206.66;5069528;28;20107;-74
2022/10/19 03:39:33;;;;;;;11.90;8.75;;;;;;;12.43;76.52;99207.81;5052183;28;20024;-74
2022/10/19 03:41:59;;;;;;;13.90;9.48;;;;;;;12.40;76.64;99208.41;5069078;28;20078;-74
2022/10/19 03:44:24;;;;;;;15.88;9.10;;;;;;;12.37;76.98;99206.25;5069465;28;20102;-74
2022/10/19 03:46:49;;;;;;;12.45;9.32;;;;;;;12.33;76.41;99217.00;5069559;28;20016;-74
2022/10/19 03:49:15;;;;;;;12.98;8.20;;;;;;;12.34;76.81;99207.63;5069520;28;20631;-75
2022/10/19 03:51:40;;;;;;;13.10;9.18;;;;;;;12.34;76.76;99206.81;5069212;28;20482;-74
2022/10/19 03:54:08;;;;;;;13.63;8.90;;;;;;;12.33;76.76;99213.44;5069365;28;20532;-74
2022/10/19 03:56:34;;;;;;;13.73;8.63;;;;;;;12.32;76.47;99200.78;5086287;28;20035;-74
2022/10/19 03:59:01;;;;;;;11.60;9.30;;;;;;;12.31;76.53;99204.66;5089589;28;20086;-74
2022/10/19 04:01:30;;;;;;;12.65;8.55;;;;;;;12.28;76.91;99214.28;5089135;28;20067;-74
2022/10/19 04:04:00;;;;;;;16.02;8.73;;;;;;;12.26;76.31;99212.94;5089331;28;20050;-74
2022/10/19 04:06:34;;;;;;;14.38;9.00;;;;;;;12.24;76.37;99221.47;5089130;28;20074;-74
2022/10/19 04:09:00;;;;;;;11.50;8.50;;;;;;;12.23;76.75;99221.75;5089486;28;20077;-74
2022/10/19 04:11:28;;;;;;;11.98;9.10;;;;;;;12.19;76.65;99219.59;5071102;28;20032;-75
2022/10/19 04:13:55;;;;;;;13.18;8.60;;;;;;;12.16;76.48;99222.91;5067567;28;20024;-74
2022/10/19 04:16:22;;;;;;;12.93;8.63;;;;;;;12.13;76.20;99217.19;5072326;28;20126;-74
2022/10/19 04:18:48;;;;;;;12.55;8.32;;;;;;;12.13;76.77;99220.75;5089326;28;20385;-74
2022/10/19 04:21:32;;;;;;;14.18;9.43;;;;;;;12.11;76.53;99216.66;5089714;28;20111;-74
2022/10/19 04:24:04;;;;;;;12.73;8.98;;;;;;;12.09;75.84;99211.41;5089354;28;20052;-74
2022/10/19 04:26:32;;;;;;;14.20;10.15;;;;;;;12.06;76.55;99214.75;5089358;28;20035;-74
2022/10/19 04:28:59;;;;;;;12.45;9.32;;;;;;;12.04;76.46;99219.72;5076665;28;20060;-74
2022/10/19 04:31:25;;;;;;;14.18;9.50;;;;;;;12.00;76.76;99211.22;5069328;28;20052;-75
2022/10/19 04:33:51;;;;;;;15.40;9.73;;;;;;;11.95;76.64;99213.19;5068955;28;20056;-75
2022/10/19 04:36:16;;;;;;;15.52;9.18;;;;;;;11.93;76.49;99207.16;5069402;28;20171;-74
2022/10/19 04:38:41;;;;;;;14.07;9.02;;;;;;;11.91;76.33;99216.50;5083027;28;20020;-74
2022/10/19 04:41:13;;;;;;;11.52;8.85;;;;;;;11.88;76.46;99208.81;5088283;28;20020;-75
2022/10/19 04:43:39;;;;;;;12.98;8.52;;;;;;;11.88;76.56;99210.72;5087504;28;20028;-74
2022/10/19 04:46:07;;;;;;;14.38;9.32;;;;;;;11.85;76.36;99217.63;5051174;28;20536;-75
2022/10/19 04:48:34;;;;;;;12.10;7.72;;;;;;;11.81;76.47;99219.31;5068926;28;20605;-74
2022/10/19 04:50:59;;;;;;;12.80;9.02;;;;;;;11.80;76.30;99205.88;5069138;28;20107;-74
2022/10/19 04:53:25;;;;;;;11.10;7.78;;;;;;;11.76;76.45;99202.84;5069101;28;20107;-74
2022/10/19 04:55:51;;;;;;;12.52;8.98;;;;;;;11.74;76.62;99207.81;5069302;28;20131;-75
2022/10/19 04:58:16;;;;;;;12.38;8.63;;;;;;;11.74;76.59;99208.66;5069089;28;20524;-74
2022/10/19 05:00:41;;;;;;;14.13;8.93;;;;;;;11.72;76.02;99210.84;5069071;28;20406;-75
2022/10/19 05:03:07;;;;;;;15.50;9.18;;;;;;;11.71;76.29;99206.47;5086546;28;20028;-75
2022/10/19 05:05:33;;;;;;;15.18;10.30;;;;;;;11.70;76.20;99204.81;5083405;28;20045;-74
2022/10/19 05:07:59;;;;;;;14.18;9.65;;;;;;;11.68;76.44;99192.47;5068427;28;20056;-75
2022/10/19 05:10:24;;;;;;;16.80;10.45;;;;;;;11.64;75.90;99189.47;5072505;28;20064;-74
2022/10/19 05:12:49;;;;;;;15.32;10.05;;;;;;;11.62;75.84;99189.75;5072609;28;20450;-74
2022/10/19 05:15:15;;;;;;;15.30;9.55;;;;;;;11.62;75.84;99188.94;5079163;28;20039;-74
2022/10/19 05:17:40;;;;;;;14.80;9.48;;;;;;;11.60;75.45;99178.25;5092777;28;20580;-75
2022/10/19 05:20:06;;;;;;;15.35;8.25;;;;;;;11.61;75.88;99179.06;5092734;28;20023;-74
2022/10/19 05:22:32;;;;;;;12.88;9.05;;;;;;;11.61;75.74;99179.06;5092382;28;20032;-74
2022/10/19 05:24:57;;;;;;;14.15;9.60;;;;;;;11.63;76.12;99182.34;5092353;28;20532;-75
2022/10/19 05:27:23;;;;;;;14.00;10.00;;;;;;;11.61;75.62;99176.31;5081061;28;20028;-75
2022/10/19 05:29:48;;;;;;;15.75;10.30;;;;;;;11.58;75.49;99176.88;5090418;28;20094;-75
2022/10/19 05:32:13;;;;;;;14.85;9.73;;;;;;;11.55;75.49;99169.22;5092047;28;20031;-75
2022/10/19 05:34:39;;;;;;;14.30;9.95;;;;;;;11.55;75.25;99182.94;5074090;28;20024;-75
2022/10/19 05:37:04;;;;;;;14.80;8.90;;;;;;;11.51;75.25;99177.22;5074338;28;20017;-75
2022/10/19 05:39:30;;;;;;;14.05;9.10;;;;;;;11.52;75.57;99186.25;5072088;28;20028;-74
2022/10/19 05:41:55;;;;;;;12.43;8.75;;;;;;;11.53;75.47;99185.97;5071767;28;20025;-75
2022/10/19 05:44:22;;;;;;;12.48;8.77;;;;;;;11.55;75.46;99188.44;5071677;28;20557;-75
2022/10/19 05:46:48;;;;;;;15.57;9.23;;;;;;;11.57;75.29;99188.97;5072193;28;20025;-75
2022/10/19 05:49:16;;;;;;;14.20;9.75;;;;;;;11.59;75.64;99190.34;5071860;28;20028;-74
2022/10/19 05:51:41;;;;;;;12.85;9.02;;;;;;;11.65;75.73;99204.03;5071601;28;20020;-74
2022/10/19 05:54:07;;;;;;;12.60;8.85;;;;;;;11.72;75.70;99190.78;5071923;28;20039;-75
2022/10/19 05:56:32;;;;;;;16.98;9.63;;;;;;;11.77;75.46;99193.50;5071659;28;20035;-75
2022/10/19 05:59:01;;;;;;;15.35;9.45;;;;;;;11.82;75.80;99193.47;5071708;28;20080;-75
2022/10/19 06:01:28;;;;;;;14.43;8.93;;;;;;;11.86;75.19;99197.28;5072118;28;20363;-76
2022/10/19 06:03:57;;;;;;;14.80;10.10;;;;;;;11.93;75.28;99198.91;5071311;28;20574;-75
2022/10/19 06:06:24;;;;;;;14.27;9.95;;;;;;;11.96;75.62;99196.38;5089400;28;20024;-75
2022/10/19 06:08:51;;;;;;;15.95;9.95;;;;;;;11.99;75.58;99197.75;5091939;28;20036;-75
2022/10/19 06:11:19;;;;;;;13.68;10.05;;;;;;;12.01;75.54;99212.06;5091167;28;20024;-75
2022/10/19 06:13:46;;;;;;;17.48;10.65;;;;;;;12.02;75.87;99211.75;5090805;28;20077;-75
2022/10/19 06:16:13;;;;;;;18.55;11.88;;;;;;;12.06;75.90;99225.75;5071710;28;20051;-74
2022/10/19 06:18:39;;;;;;;17.65;11.85;;;;;;;12.05;75.43;99232.34;5071200;28;20068;-74
2022/10/19 06:21:07;;;;;;;19.48;11.65;;;;;;;12.02;75.89;99225.50;5078511;28;20078;-74
2022/10/19 06:23:33;;;;;;;17.30;11.38;;;;;;;12.05;75.81;99226.84;5086513;28;20031;-74
2022/10/19 06:26:02;;;;;;;18.60;10.80;;;;;;;12.07;75.66;99238.38;5091447;28;20466;-74
2022/10/19 06:28:28;;;;;;;16.67;10.60;;;;;;;12.08;75.56;99229.03;5082273;28;20393;-74
2022/10/19 06:30:53;;;;;;;18.27;11.70;;;;;;;12.10;75.94;99237.00;5052991;28;20120;-75
2022/10/19 06:33:18;;;;;;;18.02;11.00;;;;;;;12.06;75.96;99239.50;5070872;28;20454;-74
2022/10/19 06:35:44;;;;;;;16.92;11.35;;;;;;;12.06;76.05;99234.00;5070613;28;20024;-75
2022/10/19 06:38:09;;;;;;;14.93;10.32;;;;;;;12.07;75.98;99232.88;5070682;28;20025;-74
2022/10/19 06:40:35;;;;;;;15.95;10.02;;;;;;;12.07;75.66;99254.88;5070348;28;20059;-74
2022/10/19 06:43:00;;;;;;;17.27;11.18;;;;;;;12.04;75.74;99245.28;5070721;28;20080;-74
2022/10/19 06:45:26;;;;;;;16.63;10.90;;;;;;;12.03;76.41;99246.41;5070451;28;20421;-74
2022/10/19 06:47:51;;;;;;;16.02;11.43;;;;;;;12.02;76.17;99252.19;5070484;28;20032;-74
2022/10/19 06:50:17;;;;;;;18.73;12.07;;;;;;;12.03;75.75;99257.41;5070350;28;20099;-74
2022/10/19 06:52:42;;;;;;;15.60;11.55;;;;;;;12.07;76.29;99252.13;5070484;28;20032;-74
2022/10/19 06:55:08;;;;;;;16.27;11.70;;;;;;;12.12;75.85;99249.34;5060517;28;20050;-73
2022/10/19 06:57:34;;;;;;;18.20;12.23;;;;;;;12.14;75.78;99258.13;5090719;28;20142;-74
2022/10/19 06:59:59;;;;;;;18.23;12.90;;;;;;;12.14;76.35;99260.88;5090399;28;20044;-72
2022/10/19 07:02:25;;;;;;;21.55;12.98;;;;;;;12.13;76.20;99272.97;5090277;28;20385;-72
2022/10/19 07:04:50;;;;;;;21.63;13.25;;;;;;;12.14;76.00;99268.31;5084353;28;20017;-76
2022/10/19 07:07:15;;;;;;;18.70;12.88;;;;;;;12.13;76.39;99281.22;5052449;28;20452;-75
2022/10/19 07:09:41;;;;;;;22.48;13.20;;;;;;;12.08;76.22;99273.03;5070396;28;20028;-76
2022/10/19 07:12:09;;;;;;;20.15;12.68;;;;;;;12.05;76.35;99277.19;5074988;28;20032;-76
2022/10/19 07:14:37;;;;;;;19.92;12.25;;;;;;;12.07;75.91;99282.38;5089039;28;20024;-76
2022/10/19 07:17:06;;;;;;;21.55;12.85;;;;;;;12.10;76.05;99284.56;5091720;28;20036;-77
2022/10/19 07:19:33;;;;;;;21.38;13.27;;;;;;;12.10;76.22;99283.75;5072309;28;20082;-76
2022/10/19 07:21:58;;;;;;;20.00;13.07;;;;;;;12.11;76.32;99288.94;5070284;28;20074;-76
2022/10/19 07:24:24;;;;;;;21.15;13.50;;;;;;;12.08;75.90;99289.50;5069943;28;20037;-78
2022/10/19 07:26:49;;;;;;;21.42;13.18;;;;;;;12.13;76.36;99292.22;5070930;28;20129;-76
2022/10/19 07:29:15;;;;;;;21.00;12.73;;;;;;;12.17;76.24;99281.50;5065784;28;20416;-80
2022/10/19 07:31:40;;;;;;;17.15;11.95;;;;;;;12.19;76.28;99282.84;5067901;28;20036;-75
2022/10/19 07:34:06;;;;;;;22.40;12.98;;;;;;;12.21;76.12;99279.81;5067126;28;20025;-76
2022/10/19 07:36:34;;;;;;;16.85;11.98;;;;;;;12.23;76.28;99285.03;5085462;28;20094;-74
2022/10/19 07:39:05;;;;;;;18.50;11.93;;;;;;;12.21;75.55;99279.81;5067943;28;20028;-75
2022/10/19 07:41:30;;;;;;;18.88;11.68;;;;;;;12.21;75.73;99280.63;5066412;28;20020;-74
2022/10/19 07:43:56;;;;;;;19.30;12.30;;;;;;;12.23;75.81;99274.81;5066282;28;20025;-75
2022/10/19 07:46:25;;;;;;;17.13;11.75;;;;;;;12.26;75.54;99282.50;5071923;28;21165;-76
2022/10/19 07:48:50;;;;;;;18.23;12.20;;;;;;;12.25;75.69;99288.31;5071969;28;20520;-78
2022/10/19 07:51:17;;;;;;;18.85;11.52;;;;;;;12.20;75.37;99295.50;5068141;28;20029;-80
2022/10/19 07:53:43;;;;;;;16.58;11.45;;;;;;;12.18;75.53;99292.19;5075766;28;20095;-79
2022/10/19 07:56:10;;;;;;;14.80;9.80;;;;;;;12.11;75.06;99285.38;5070873;28;20119;-75
2022/10/19 07:58:36;;;;;;;15.32;10.73;;;;;;;12.05;75.46;99285.44;5068069;28;20038;-77
2022/10/19 08:01:04;;;;;;;20.38;11.27;;;;;;;11.98;75.02;99284.88;5051234;28;20111;-77
2022/10/19 08:03:29;;;;;;;17.20;9.82;;;;;;;11.98;75.10;99292.31;5069246;28;20043;-76
2022/10/19 08:06:01;;;;;;;29.52;18.98;;;;;;;12.00;75.29;99281.91;5069406;28;20025;-77
2022/10/19 08:08:27;;;;;;;15.35;10.05;;;;;;;12.02;75.23;99287.94;5070234;28;20110;-76
2022/10/19 08:10:52;;;;;;;20.88;11.75;;;;;;;12.06;74.78;99291.72;5069413;28;20052;-77
2022/10/19 08:13:18;;;;;;;12.38;8.02;;;;;;;12.08;75.11;99281.28;5060320;28;20703;-78
2022/10/19 08:15:43;;;;;;;10.95;6.80;;;;;;;12.16;75.22;99286.16;5071518;28;20469;-77
2022/10/19 08:18:10;;;;;;;10.77;6.47;;;;;;;12.21;74.41;99294.38;5068624;28;20040;-79
2022/10/19 08:20:36;;;;;;;9.05;5.55;;;;;;;12.21;74.16;99290.81;5070867;28;21059;-77
2022/10/19 08:23:01;;;;;;;10.63;5.70;;;;;;;12.16;74.29;99286.16;5065729;28;20423;-78
2022/10/19 08:25:27;;;;;;;8.88;4.30;;;;;;;12.11;73.98;99290.88;5071041;28;20111;-75
2022/10/19 08:27:52;;;;;;;7.65;3.50;;;;;;;12.07;73.32;99293.38;5061883;28;20427;-76
2022/10/19 08:30:17;;;;;;;6.75;2.78;;;;;;;12.02;72.82;99296.19;5080412;28;20102;-74
2022/10/19 08:32:43;;;;;;;6.40;2.65;;;;;;;11.97;71.80;99293.44;5067642;28;20040;-75
2022/10/19 08:35:08;;;;;;;4.43;2.33;;;;;;;11.95;72.13;99279.97;5063519;28;20040;-77
2022/10/19 08:37:34;;;;;;;20.17;10.60;;;;;;;11.98;71.26;99279.38;5070939;28;20032;-75
2022/10/19 08:39:59;;;;;;;6.63;3.55;;;;;;;12.04;70.37;99283.78;5076949;28;20031;-76
2022/10/19 08:42:41;;;;;;;7.80;2.30;;;;;;;12.13;68.46;99280.44;5066818;28;20103;-74
2022/10/19 08:45:33;;;;;;;4.22;2.00;;;;;;;12.21;69.38;99283.38;5069824;28;20102;-73
2022/10/19 08:48:09;;;;;;;3.95;2.47;;;;;;;12.31;69.48;99287.97;5077668;28;20053;-73
2022/10/19 08:50:40;;;;;;;8.27;2.17;;;;;;;12.39;69.53;99285.72;5091596;28;20024;-73
2022/10/19 08:53:12;;;;;;;4.80;2.00;;;;;;;12.48;69.37;99286.75;5078572;28;20057;-72
2022/10/19 08:56:04;;;;;;;4.30;1.85;;;;;;;12.51;68.25;99286.97;5052334;28;20048;-73
2022/10/19 08:58:48;;;;;;;5.45;2.80;;;;;;;12.55;67.63;99286.41;5079753;28;20028;-73
2022/10/19 09:01:20;;;;;;;12.95;2.47;;;;;;;12.53;65.54;99288.63;5069721;28;20037;-73
2022/10/19 09:04:03;;;;;;;7.47;1.88;;;;;;;12.49;66.66;99289.19;5070585;28;20437;-75
2022/10/19 09:06:39;;;;;;;5.40;2.13;;;;;;;12.55;67.10;99291.91;5071240;28;20102;-77
2022/10/19 09:09:05;;;;;;;6.15;1.52;;;;;;;12.60;66.05;99286.34;5081272;28;20017;-75
2022/10/19 09:11:37;;;;;;;3.92;1.75;;;;;;;12.63;65.18;99294.03;5075569;28;20059;-73
2022/10/19 09:14:31;;;;;;;5.57;2.25;;;;;;;12.62;65.15;99286.88;5070481;28;20025;-76
2022/10/19 09:17:01;;;;;;;6.43;1.90;;;;;;;12.62;65.76;99295.16;5072587;28;20040;-74
2022/10/19 09:19:29;;;;;;;7.95;2.33;;;;;;;12.63;65.84;99305.84;5072521;28;20028;-74
2022/10/19 09:22:07;;;;;;;3.83;1.80;;;;;;;12.65;65.58;99306.38;5069278;28;20024;-74
2022/10/19 09:24:54;;;;;;;5.55;1.58;;;;;;;12.61;65.22;99305.34;5072039;28;20060;-74
2022/10/19 09:27:23;;;;;;;4.35;1.70;;;;;;;12.58;65.21;99313.34;5071172;28;20028;-72
2022/10/19 09:30:02;;;;;;;3.95;1.75;;;;;;;12.56;65.26;99310.88;5071321;28;20060;-73
2022/10/19 09:32:32;;;;;;;2.47;1.40;;;;;;;12.54;65.00;99306.78;5071816;28;20035;-72
2022/10/19 09:35:01;;;;;;;8.27;1.85;;;;;;;12.57;65.57;99318.03;5077931;28;20035;-73
2022/10/19 09:37:28;;;;;;;2.78;1.77;;;;;;;12.58;65.20;99313.34;5069324;28;20021;-71
2022/10/19 09:39:54;;;;;;;3.90;1.88;;;;;;;12.56;65.38;99308.13;5078546;28;20032;-73
2022/10/19 09:42:29;;;;;;;4.25;1.90;;;;;;;12.57;64.75;99322.69;5071152;28;20086;-73
2022/10/19 09:44:55;;;;;;;6.43;2.25;;;;;;;12.52;65.05;99318.06;5067476;28;20028;-75
2022/10/19 09:47:35;;;;;;;7.97;2.40;;;;;;;12.52;65.12;99309.81;5076239;28;20035;-72
2022/10/19 09:50:23;;;;;;;6.32;2.15;;;;;;;12.51;65.27;99316.44;5066211;28;20048;-72
2022/10/19 09:52:51;;;;;;;7.30;2.13;;;;;;;12.49;64.62;99324.16;5079256;28;20017;-71
2022/10/19 09:55:16;;;;;;;5.05;2.00;;;;;;;12.47;64.90;99324.44;5069523;28;20036;-72
2022/10/19 09:57:49;;;;;;;4.68;1.67;;;;;;;12.47;65.08;99321.66;5070756;28;20104;-76
2022/10/19 10:00:32;;;;;;;4.70;2.10;;;;;;;12.45;65.03;99312.88;5071553;28;20039;-72
2022/10/19 10:02:57;;;;;;;5.93;2.30;;;;;;;12.46;64.97;99322.78;5067865;28;20579;-72
2022/10/19 10:05:50;;;;;;;7.75;3.58;;;;;;;12.40;65.03;99312.13;5070356;28;20032;-75
2022/10/19 10:08:19;;;;;;;17.55;7.80;;;;;;;12.39;65.23;99326.97;5062275;28;20139;-73
2022/10/19 10:10:56;;;;;;;7.25;3.58;;;;;;;12.34;65.25;99320.41;5069673;28;20032;-73
2022/10/19 10:13:24;;;;;;;6.65;3.63;;;;;;;12.34;65.04;99325.09;5067541;28;20112;-73
2022/10/19 10:15:55;;;;;;;6.75;2.38;;;;;;;12.33;64.73;99326.22;5078358;28;20039;-72
2022/10/19 10:18:24;;;;;;;7.70;2.58;;;;;;;12.31;64.77;99311.91;5065143;28;20025;-75
2022/10/19 10:21:02;;;;;;;5.63;2.35;;;;;;;12.29;65.01;99311.38;5072598;28;20024;-73
2022/10/19 10:23:31;;;;;;;5.95;2.30;;;;;;;12.31;65.03;99303.66;5067633;28;20653;-72
2022/10/19 10:25:58;;;;;;;5.30;1.83;;;;;;;12.35;65.02;99304.75;5072075;28;20478;-72
2022/10/19 10:28:26;;;;;;;3.50;2.50;;;;;;;12.41;65.16;99311.84;5070082;28;20027;-72
2022/10/19 10:31:02;;;;;;;6.82;2.28;;;;;;;12.45;65.32;99312.88;5089772;28;20516;-72
2022/10/19 10:33:30;;;;;;;7.43;2.42;;;;;;;12.51;65.28;99311.75;5064925;28;20645;-72
2022/10/19 10:36:04;;;;;;;6.07;2.70;;;;;;;12.54;65.13;99304.84;5080663;28;20603;-72
2022/10/19 10:38:37;;;;;;;6.60;2.90;;;;;;;12.54;65.13;99309.53;5088185;28;20032;-73
2022/10/19 10:41:09;;;;;;;9.23;4.93;;;;;;;12.56;65.08;99308.13;5084106;28;20470;-73
2022/10/19 10:43:38;;;;;;;7.47;3.70;;;;;;;12.53;64.35;99297.72;5087511;28;20056;-73
2022/10/19 10:46:13;;;;;;;10.18;5.20;;;;;;;12.55;64.97;99314.75;5088899;28;20020;-75
2022/10/19 10:48:44;;;;;;;8.80;4.90;;;;;;;12.59;64.71;99314.97;5088709;28;20085;-72
2022/10/19 10:51:28;;;;;;;11.20;4.32;;;;;;;12.61;64.71;99318.28;5088854;28;20031;-73
2022/10/19 10:54:18;;;;;;;42.97;11.60;;;;;;;12.61;64.67;99308.09;5067489;28;20036;-73
2022/10/19 10:57:15;;;;;;;10.25;4.10;;;;;;;12.64;64.95;99309.44;5069364;28;20438;-72
2022/10/19 10:59:56;;;;;;;5.85;2.50;;;;;;;12.69;64.65;99306.66;5076142;28;20046;-75
2022/10/19 11:02:45;;;;;;;10.15;2.60;;;;;;;12.70;64.25;99299.19;5089588;28;20556;-72
2022/10/19 11:05:18;;;;;;;7.60;2.47;;;;;;;12.69;64.34;99303.91;5089162;28;20020;-73
2022/10/19 11:07:47;;;;;;;6.13;2.92;;;;;;;12.69;64.21;99297.56;5089339;28;20024;-73
2022/10/19 11:10:22;;;;;;;4.85;2.20;;;;;;;12.69;64.46;99292.03;5089724;28;20032;-73
2022/10/19 11:13:00;;;;;;;12.00;3.30;;;;;;;12.72;64.27;99291.47;5082227;28;20044;-72
2022/10/19 11:15:53;;;;;;;19.73;7.15;;;;;;;12.72;64.12;99292.31;5048346;28;20029;-74
2022/10/19 11:18:29;;;;;;;8.52;3.67;;;;;;;12.77;64.41;99281.25;5069211;28;20020;-71
2022/10/19 11:21:01;;;;;;;4.00;1.90;;;;;;;12.76;64.10;99287.88;5076985;28;20022;-72
2022/10/19 11:23:35;;;;;;;5.35;2.08;;;;;;;12.74;62.84;99281.81;5087434;28;20028;-73
2022/10/19 11:26:35;;;;;;;7.28;1.95;;;;;;;12.66;63.50;99280.50;5069901;28;20047;-72
2022/10/19 11:29:15;;;;;;;2.58;1.30;;;;;;;12.63;63.13;99286.59;5074410;28;20118;-72
2022/10/19 11:31:46;;;;;;;5.30;1.92;;;;;;;12.58;63.16;99283.06;5068391;28;20108;-72
2022/10/19 11:34:42;;;;;;;11.70;3.78;;;;;;;12.54;63.08;99285.59;5065270;28;20558;-74
2022/10/19 11:37:23;;;;;;;16.60;5.78;;;;;;;12.53;62.87;99288.63;5069758;28;20033;-72